createdAt,value
2023-01-02T00:01:26.827Z,7.15
2023-01-02T00:03:56.695Z,7.75
2023-01-02T00:06:23.893Z,10.55
2023-01-02T00:08:50.499Z,6.80
2023-01-02T00:11:17.108Z,5.82
2023-01-02T00:13:43.501Z,6.60
2023-01-02T00:16:09.982Z,7.68
2023-01-02T00:18:36.501Z,5.78
2023-01-02T00:21:04.801Z,10.00
2023-01-02T00:23:32.135Z,8.65
2023-01-02T00:25:58.665Z,6.05
2023-01-02T00:28:25.195Z,6.85
2023-01-02T00:30:52.131Z,8.75
2023-01-02T00:33:18.561Z,6.82
2023-01-02T00:35:44.940Z,6.45
2023-01-02T00:38:11.430Z,8.02
2023-01-02T00:40:37.816Z,6.82
2023-01-02T00:43:04.240Z,10.70
2023-01-02T00:45:30.637Z,7.38
2023-01-02T00:47:57.146Z,6.50
2023-01-02T00:50:23.613Z,9.35
2023-01-02T00:52:50.155Z,8.30
2023-01-02T00:55:16.585Z,8.68
2023-01-02T00:57:42.920Z,7.22
2023-01-02T01:00:09.962Z,7.10
2023-01-02T01:02:36.468Z,8.23
2023-01-02T01:05:03.264Z,9.07
2023-01-02T01:07:29.887Z,9.85
2023-01-02T01:09:56.221Z,10.63
2023-01-02T01:12:22.637Z,8.07
2023-01-02T01:14:49.124Z,7.80
2023-01-02T01:17:15.495Z,6.75
2023-01-02T01:19:42.036Z,7.80
2023-01-02T01:22:08.429Z,9.00
2023-01-02T01:24:34.860Z,5.15
2023-01-02T01:27:01.440Z,8.15
2023-01-02T01:29:27.800Z,8.63
2023-01-02T01:31:54.264Z,8.30
2023-01-02T01:34:20.676Z,6.78
2023-01-02T01:36:47.084Z,11.00
2023-01-02T01:39:13.546Z,8.55
2023-01-02T01:41:39.955Z,9.38
2023-01-02T01:44:45.228Z,8.57
2023-01-02T01:47:37.113Z,7.65
2023-01-02T01:50:10.641Z,7.53
2023-01-02T01:52:44.239Z,8.40
2023-01-02T01:55:25.618Z,6.97
2023-01-02T01:58:06.093Z,10.98
2023-01-02T02:00:32.656Z,8.77
2023-01-02T02:03:01.981Z,11.48
2023-01-02T02:05:30.726Z,12.77
2023-01-02T02:08:15.874Z,10.85
2023-01-02T02:10:42.965Z,6.55
2023-01-02T02:13:09.367Z,8.48
2023-01-02T02:16:08.831Z,8.57
2023-01-02T02:18:50.268Z,8.25
2023-01-02T02:21:49.361Z,5.70
2023-01-02T02:24:32.444Z,8.48
2023-01-02T02:27:31.873Z,8.68
2023-01-02T02:30:16.338Z,5.45
2023-01-02T02:33:04.564Z,8.25
2023-01-02T02:36:11.865Z,9.88
2023-01-02T02:41:29.745Z,6.93
2023-01-02T02:44:02.224Z,11.77
2023-01-02T02:46:56.203Z,9.85
2023-01-02T02:49:42.106Z,9.43
2023-01-02T02:52:39.971Z,7.45
2023-01-02T02:55:19.518Z,10.52
2023-01-02T02:57:47.467Z,8.70
2023-01-02T03:00:17.038Z,8.20
2023-01-02T03:02:43.555Z,10.85
2023-01-02T03:05:14.358Z,11.85
2023-01-02T03:07:53.177Z,8.52
2023-01-02T03:10:37.649Z,6.60
2023-01-02T03:13:41.465Z,6.68
2023-01-02T03:16:29.805Z,8.32
2023-01-02T03:19:09.734Z,11.23
2023-01-02T03:21:54.511Z,8.38
2023-01-02T03:24:24.825Z,4.72
2023-01-02T03:26:58.661Z,7.22
2023-01-02T03:29:30.933Z,7.90
2023-01-02T03:32:01.432Z,8.80
2023-01-02T03:34:31.982Z,7.57
2023-01-02T03:37:03.629Z,9.93
2023-01-02T03:39:35.292Z,8.77
2023-01-02T03:42:12.521Z,6.75
2023-01-02T03:44:47.205Z,6.78
2023-01-02T03:47:26.838Z,6.47
2023-01-02T03:49:56.936Z,7.40
2023-01-02T03:52:26.102Z,6.80
2023-01-02T03:54:54.835Z,11.45
2023-01-02T03:57:55.186Z,7.38
2023-01-02T04:00:28.892Z,7.05
2023-01-02T04:02:59.537Z,6.45
2023-01-02T04:05:38.150Z,9.85
2023-01-02T04:08:16.989Z,8.10
2023-01-02T04:10:46.254Z,8.55
2023-01-02T04:13:21.812Z,9.77
2023-01-02T04:15:50.432Z,9.38
2023-01-02T04:18:26.561Z,8.55
2023-01-02T04:20:57.504Z,8.27
2023-01-02T04:23:32.216Z,6.22
2023-01-02T04:26:08.641Z,6.10
2023-01-02T04:28:35.785Z,5.18
2023-01-02T04:31:34.345Z,7.95
2023-01-02T04:34:02.295Z,8.75
2023-01-02T04:36:28.860Z,7.30
2023-01-02T04:38:55.371Z,9.57
2023-01-02T04:41:29.288Z,6.75
2023-01-02T04:43:56.628Z,9.65
2023-01-02T04:46:25.096Z,9.55
2023-01-02T04:48:51.856Z,11.48
2023-01-02T04:51:18.810Z,7.93
2023-01-02T04:53:48.217Z,9.48
2023-01-02T04:56:14.588Z,10.75
2023-01-02T04:58:42.204Z,5.90
2023-01-02T05:01:09.690Z,6.70
2023-01-02T05:03:40.724Z,5.85
2023-01-02T05:06:07.649Z,10.18
2023-01-02T05:08:34.815Z,4.43
2023-01-02T05:11:11.392Z,9.13
2023-01-02T05:13:37.739Z,6.97
2023-01-02T05:16:04.668Z,9.73
2023-01-02T05:18:32.061Z,10.35
2023-01-02T05:21:02.378Z,8.80
2023-01-02T05:23:47.510Z,10.75
2023-01-02T05:26:14.565Z,9.27
2023-01-02T05:28:41.196Z,7.18
2023-01-02T05:31:08.058Z,7.63
2023-01-02T05:33:34.510Z,6.50
2023-01-02T05:36:01.175Z,10.13
2023-01-02T05:38:27.557Z,11.43
2023-01-02T05:41:04.127Z,6.80
2023-01-02T05:43:35.179Z,6.28
2023-01-02T05:46:12.134Z,7.28
2023-01-02T05:48:39.423Z,9.50
2023-01-02T05:51:07.593Z,6.93
2023-01-02T05:53:34.241Z,10.18
2023-01-02T05:56:29.942Z,7.68
2023-01-02T05:58:56.673Z,9.57
2023-01-02T06:01:25.882Z,8.70
2023-01-02T06:03:57.585Z,7.45
2023-01-02T06:06:36.262Z,8.60
2023-01-02T06:09:04.547Z,8.43
2023-01-02T06:11:31.750Z,11.18
2023-01-02T06:13:58.729Z,10.45
2023-01-02T06:16:25.342Z,10.02
2023-01-02T06:18:52.534Z,7.75
2023-01-02T06:21:20.634Z,7.95
2023-01-02T06:23:48.052Z,12.25
2023-01-02T06:26:19.459Z,13.18
2023-01-02T06:28:49.033Z,5.35
2023-01-02T06:31:17.488Z,13.52
2023-01-02T06:33:45.157Z,12.48
2023-01-02T06:36:17.133Z,10.70
2023-01-02T06:38:45.553Z,11.88
2023-01-02T06:41:12.657Z,10.75
2023-01-02T06:43:45.631Z,9.48
2023-01-02T06:46:13.126Z,11.35
2023-01-02T06:48:40.241Z,9.75
2023-01-02T06:51:08.630Z,9.13
2023-01-02T06:53:36.718Z,7.82
2023-01-02T06:56:04.173Z,5.25
2023-01-02T06:58:32.675Z,10.40
2023-01-02T07:01:09.665Z,7.20
2023-01-02T07:03:36.578Z,6.20
2023-01-02T07:06:05.689Z,6.97
2023-01-02T07:08:32.579Z,7.28
2023-01-02T07:11:11.361Z,8.25
2023-01-02T07:13:38.165Z,8.10
2023-01-02T07:16:07.034Z,6.70
2023-01-02T07:18:33.812Z,6.35
2023-01-02T07:21:00.838Z,4.38
2023-01-02T07:23:27.763Z,6.45
2023-01-02T07:25:59.098Z,6.07
2023-01-02T07:28:25.783Z,10.60
2023-01-02T07:30:55.916Z,9.48
2023-01-02T07:33:22.289Z,7.80
2023-01-02T07:35:48.663Z,4.28
2023-01-02T07:38:15.002Z,10.45
2023-01-02T07:40:41.349Z,6.57
2023-01-02T07:43:07.773Z,5.78
2023-01-02T07:45:34.998Z,9.18
2023-01-02T07:48:02.547Z,9.63
2023-01-02T07:50:28.953Z,9.98
2023-01-02T07:52:55.348Z,4.88
2023-01-02T07:55:21.704Z,6.55
2023-01-02T07:57:48.252Z,7.65
2023-01-02T08:00:16.815Z,6.32
2023-01-02T08:02:43.206Z,7.22
2023-01-02T08:05:10.098Z,8.82
2023-01-02T08:07:42.764Z,4.47
2023-01-02T08:10:12.313Z,5.95
2023-01-02T08:12:39.012Z,8.57
2023-01-02T08:15:06.420Z,5.45
2023-01-02T08:17:33.072Z,7.28
2023-01-02T08:20:06.839Z,5.47
2023-01-02T08:22:34.388Z,6.70
2023-01-02T08:25:00.791Z,5.65
2023-01-02T08:27:27.160Z,5.97
2023-01-02T08:29:53.550Z,4.22
2023-01-02T08:32:19.888Z,6.80
2023-01-02T08:34:52.437Z,7.60
2023-01-02T08:37:18.812Z,7.30
2023-01-02T08:39:48.167Z,7.80
2023-01-02T08:42:14.487Z,5.63
2023-01-02T08:44:40.886Z,4.15
2023-01-02T08:47:07.210Z,4.25
2023-01-02T08:49:33.993Z,6.53
2023-01-02T08:52:00.324Z,4.97
2023-01-02T08:54:26.668Z,5.90
2023-01-02T08:56:53.010Z,4.43
2023-01-02T08:59:19.595Z,5.70
2023-01-02T09:01:46.138Z,4.60
2023-01-02T09:04:13.447Z,3.92
2023-01-02T09:06:41.337Z,5.13
2023-01-02T09:09:12.087Z,5.88
2023-01-02T09:11:43.600Z,3.72
2023-01-02T09:14:17.980Z,5.13
2023-01-02T09:16:44.391Z,4.35
2023-01-02T09:19:11.351Z,4.97
2023-01-02T09:21:37.750Z,5.05
2023-01-02T09:24:04.677Z,6.10
2023-01-02T09:26:31.065Z,5.93
2023-01-02T09:28:57.524Z,3.38
2023-01-02T09:31:24.104Z,3.72
2023-01-02T09:33:52.778Z,5.03
2023-01-02T09:36:20.272Z,3.92
2023-01-02T09:38:54.548Z,3.08
2023-01-02T09:41:52.274Z,3.55
2023-01-02T09:44:25.247Z,3.42
2023-01-02T09:47:00.831Z,6.43
2023-01-02T09:49:40.654Z,2.38
2023-01-02T09:52:08.649Z,1.48
2023-01-02T09:54:35.074Z,0.85
2023-01-02T09:57:29.474Z,0.70
2023-01-02T09:59:55.907Z,1.83
2023-01-02T10:02:40.696Z,1.10
2023-01-02T10:05:39.354Z,1.17
2023-01-02T10:08:19.118Z,2.05
2023-01-02T10:11:05.598Z,0.80
2023-01-02T10:16:45.545Z,1.20
2023-01-02T10:19:49.556Z,1.40
2023-01-02T10:22:21.621Z,1.00
2023-01-02T10:25:19.415Z,0.85
2023-01-02T10:27:53.135Z,0.80
2023-01-02T10:30:22.811Z,3.08
2023-01-02T10:33:12.924Z,0.98
2023-01-02T10:35:44.265Z,0.65
2023-01-02T10:38:14.698Z,1.10
2023-01-02T10:40:44.416Z,1.08
2023-01-02T10:43:11.749Z,1.02
2023-01-02T10:45:38.562Z,0.80
2023-01-02T10:48:05.249Z,0.80
2023-01-02T10:50:41.230Z,1.00
2023-01-02T10:55:44.108Z,0.90
2023-01-02T10:58:25.397Z,1.27
2023-01-02T11:01:05.010Z,1.15
2023-01-02T11:03:31.600Z,0.90
2023-01-02T11:06:05.857Z,0.80
2023-01-02T11:08:42.260Z,3.33
2023-01-02T11:11:16.962Z,1.23
2023-01-02T11:13:53.851Z,1.25
2023-01-02T11:16:23.327Z,0.90
2023-01-02T11:18:52.774Z,1.30
2023-01-02T11:21:32.709Z,1.27
2023-01-02T11:24:04.865Z,1.90
2023-01-02T11:26:33.915Z,2.45
2023-01-02T11:29:08.208Z,2.13
2023-01-02T11:31:35.189Z,1.73
2023-01-02T11:34:10.258Z,1.58
2023-01-02T11:36:36.910Z,1.47
2023-01-02T11:39:24.186Z,1.10
2023-01-02T11:42:40.483Z,1.20
2023-01-02T11:45:13.590Z,1.20
2023-01-02T11:47:49.837Z,2.97
2023-01-02T11:50:36.399Z,1.75
2023-01-02T11:53:11.937Z,1.10
2023-01-02T11:55:55.716Z,1.38
2023-01-02T11:58:30.308Z,4.40
2023-01-02T12:01:06.082Z,1.88
2023-01-02T12:03:33.419Z,1.73
2023-01-02T12:06:09.387Z,2.38
2023-01-02T12:11:26.726Z,1.83
2023-01-02T12:13:58.339Z,2.65
2023-01-02T12:16:27.662Z,1.80
2023-01-02T12:19:17.292Z,2.53
2023-01-02T12:22:02.015Z,2.78
2023-01-02T12:24:41.963Z,4.05
2023-01-02T12:27:16.535Z,3.55
2023-01-02T12:29:52.419Z,2.67
2023-01-02T12:35:03.961Z,2.88
2023-01-02T12:37:48.087Z,3.38
2023-01-02T12:40:36.169Z,3.15
2023-01-02T12:43:14.549Z,3.95
2023-01-02T12:45:48.449Z,3.35
2023-01-02T12:48:20.049Z,3.40
2023-01-02T12:51:02.246Z,3.70
2023-01-02T12:53:40.936Z,4.65
2023-01-02T12:56:52.613Z,3.38
2023-01-02T12:59:30.930Z,4.88
2023-01-02T13:02:05.731Z,3.55
2023-01-02T13:04:38.311Z,3.77
2023-01-02T13:07:09.282Z,3.53
2023-01-02T13:09:44.557Z,3.50
2023-01-02T13:12:17.707Z,4.07
2023-01-02T13:15:00.696Z,3.47
2023-01-02T13:17:33.151Z,2.88
2023-01-02T13:20:20.716Z,3.88
2023-01-02T13:23:37.235Z,3.15
2023-01-02T13:26:08.586Z,2.47
2023-01-02T13:28:41.341Z,4.20
2023-01-02T13:31:44.838Z,3.67
2023-01-02T13:33:57.551Z,7.35
2023-01-02T13:36:36.881Z,3.92
2023-01-02T13:39:24.969Z,3.10
2023-01-02T13:42:14.023Z,3.00
2023-01-02T13:44:51.307Z,4.32
2023-01-02T13:47:25.594Z,4.30
2023-01-02T13:50:14.714Z,4.80
2023-01-02T13:52:54.222Z,4.00
2023-01-02T13:55:28.439Z,3.45
2023-01-02T13:58:13.455Z,3.97
2023-01-02T14:00:51.418Z,3.08
2023-01-02T14:03:20.667Z,3.38
2023-01-02T14:05:59.044Z,3.13
2023-01-02T14:08:31.089Z,2.80
2023-01-02T14:11:02.019Z,2.80
2023-01-02T14:13:35.840Z,3.58
2023-01-02T14:16:37.003Z,4.07
2023-01-02T14:19:12.523Z,4.03
2023-01-02T14:21:47.974Z,4.07
2023-01-02T14:24:30.893Z,4.57
2023-01-02T14:27:22.656Z,3.50
2023-01-02T14:30:03.002Z,4.63
2023-01-02T14:32:39.582Z,3.85
2023-01-02T14:35:22.260Z,3.92
2023-01-02T14:37:51.062Z,2.95
2023-01-02T14:40:23.612Z,7.30
2023-01-02T14:43:14.740Z,2.97
2023-01-02T14:45:47.613Z,2.63
2023-01-02T14:48:19.288Z,2.25
2023-01-02T14:50:48.474Z,3.28
2023-01-02T14:53:38.671Z,3.67
2023-01-02T14:56:13.499Z,4.13
2023-01-02T14:58:41.975Z,3.20
2023-01-02T15:01:10.543Z,2.58
2023-01-02T15:03:40.113Z,3.20
2023-01-02T15:06:13.069Z,2.80
2023-01-02T15:08:49.252Z,4.00
2023-01-02T15:11:40.632Z,3.53
2023-01-02T15:14:13.023Z,3.70
2023-01-02T15:16:55.113Z,5.47
2023-01-02T15:19:25.226Z,2.78
2023-01-02T15:21:51.700Z,3.85
2023-01-02T15:24:30.557Z,2.47
2023-01-02T15:27:13.105Z,4.28
2023-01-02T15:29:47.436Z,4.72
2023-01-02T15:32:29.460Z,2.70
2023-01-02T15:35:10.087Z,4.95
2023-01-02T15:37:45.379Z,4.93
2023-01-02T15:40:25.446Z,3.85
2023-01-02T15:43:18.080Z,3.65
2023-01-02T15:45:51.339Z,4.93
2023-01-02T15:48:24.558Z,3.45
2023-01-02T15:50:57.032Z,3.95
2023-01-02T15:53:28.356Z,4.32
2023-01-02T15:55:55.419Z,5.05
2023-01-02T15:58:31.046Z,3.80
2023-01-02T16:01:19.072Z,3.28
2023-01-02T16:04:02.223Z,6.22
2023-01-02T16:06:42.724Z,3.15
2023-01-02T16:09:25.439Z,5.53
2023-01-02T16:12:04.212Z,4.03
2023-01-02T16:14:30.986Z,4.45
2023-01-02T16:16:57.311Z,5.82
2023-01-02T16:20:07.225Z,3.30
2023-01-02T16:22:52.148Z,4.88
2023-01-02T16:25:20.235Z,4.72
2023-01-02T16:27:50.825Z,4.82
2023-01-02T16:30:32.527Z,4.78
2023-01-02T16:33:04.916Z,6.45
2023-01-02T16:35:36.948Z,3.97
2023-01-02T16:38:06.253Z,4.13
2023-01-02T16:41:00.037Z,5.68
2023-01-02T16:43:30.054Z,4.28
2023-01-02T16:45:57.873Z,5.00
2023-01-02T16:48:27.902Z,4.18
2023-01-02T16:50:56.099Z,4.80
2023-01-02T16:53:33.728Z,5.40
2023-01-02T16:56:00.548Z,4.82
2023-01-02T16:58:27.203Z,4.72
2023-01-02T17:00:55.542Z,7.82
2023-01-02T17:03:27.444Z,5.32
2023-01-02T17:06:01.411Z,5.78
2023-01-02T17:08:31.587Z,5.95
2023-01-02T17:10:58.870Z,5.88
2023-01-02T17:13:26.077Z,7.50
2023-01-02T17:15:52.503Z,6.53
2023-01-02T17:18:18.860Z,7.93
2023-01-02T17:20:45.380Z,8.05
2023-01-02T17:23:12.012Z,7.97
2023-01-02T17:25:40.863Z,8.77
2023-01-02T17:28:07.432Z,7.40
2023-01-02T17:30:33.876Z,9.45
2023-01-02T17:33:04.130Z,9.55
2023-01-02T17:35:30.924Z,9.73
2023-01-02T17:37:57.370Z,8.82
2023-01-02T17:40:23.759Z,12.02
2023-01-02T17:42:50.139Z,11.40
2023-01-02T17:45:16.684Z,11.65
2023-01-02T17:48:02.699Z,10.85
2023-01-02T17:52:55.835Z,10.60
2023-01-02T17:55:22.301Z,12.85
2023-01-02T17:57:48.715Z,12.45
2023-01-02T18:00:15.784Z,12.80
2023-01-02T18:02:42.253Z,12.00
2023-01-02T18:05:09.565Z,10.45
2023-01-02T18:07:35.936Z,11.15
2023-01-02T18:10:12.672Z,12.60
2023-01-02T18:12:42.799Z,9.75
2023-01-02T18:15:13.769Z,7.25
2023-01-02T18:17:40.242Z,6.95
2023-01-02T18:20:12.133Z,7.22
2023-01-02T18:22:44.017Z,5.45
2023-01-02T18:25:24.403Z,5.72
2023-01-02T18:27:51.121Z,3.28
2023-01-02T18:30:24.206Z,3.83
2023-01-02T18:32:57.346Z,3.50
2023-01-02T18:35:56.120Z,3.08
2023-01-02T18:38:39.209Z,3.45
2023-01-02T18:41:23.670Z,2.92
2023-01-02T18:43:53.995Z,2.70
2023-01-02T18:47:03.412Z,3.65
2023-01-02T18:49:23.285Z,3.00
2023-01-02T18:52:22.509Z,3.97
2023-01-02T18:54:56.537Z,4.25
2023-01-02T18:57:23.216Z,5.05
2023-01-02T18:59:51.413Z,4.55
2023-01-02T19:02:52.224Z,5.20
2023-01-02T19:05:26.427Z,4.93
2023-01-02T19:08:02.133Z,5.82
2023-01-02T19:10:37.314Z,6.03
2023-01-02T19:13:08.156Z,8.00
2023-01-02T19:15:57.739Z,6.32
2023-01-02T19:18:33.662Z,6.28
2023-01-02T19:23:45.465Z,7.82
2023-01-02T19:26:22.160Z,9.15
2023-01-02T19:29:03.746Z,11.00
2023-01-02T19:31:44.892Z,10.93
2023-01-02T19:34:28.364Z,11.75
2023-01-02T19:37:01.275Z,10.05
2023-01-02T19:39:34.408Z,11.07
2023-01-02T19:42:19.676Z,10.77
2023-01-02T19:44:50.431Z,11.93
2023-01-02T19:47:17.865Z,11.75
2023-01-02T19:49:44.497Z,12.73
2023-01-02T19:52:12.156Z,12.27
2023-01-02T19:54:39.779Z,11.90
2023-01-02T19:57:07.446Z,13.20
2023-01-02T19:59:38.607Z,13.30
2023-01-02T20:02:09.940Z,13.77
2023-01-02T20:04:36.445Z,13.50
2023-01-02T20:07:02.862Z,14.77
2023-01-02T20:09:29.561Z,14.50
2023-01-02T20:12:14.582Z,16.67
2023-01-02T20:14:41.322Z,13.48
2023-01-02T20:17:08.381Z,14.73
2023-01-02T20:19:35.559Z,14.57
2023-01-02T20:22:02.534Z,16.77
2023-01-02T20:24:29.637Z,16.55
2023-01-02T20:26:57.697Z,15.18
2023-01-02T20:29:24.733Z,15.05
2023-01-02T20:31:51.500Z,14.82
2023-01-02T20:34:18.828Z,15.40
2023-01-02T20:36:45.491Z,14.48
2023-01-02T20:39:12.692Z,19.02
2023-01-02T20:41:40.111Z,15.88
2023-01-02T20:44:11.249Z,15.85
2023-01-02T20:46:38.965Z,15.80
2023-01-02T20:49:06.687Z,16.02
2023-01-02T20:51:33.595Z,13.80
2023-01-02T20:54:00.258Z,12.82
2023-01-02T20:56:28.012Z,16.25
2023-01-02T20:58:55.708Z,17.00
2023-01-02T21:01:23.516Z,20.20
2023-01-02T21:03:50.353Z,17.63
2023-01-02T21:06:17.270Z,14.15
2023-01-02T21:08:43.648Z,15.38
2023-01-02T21:11:10.399Z,14.88
2023-01-02T21:13:36.845Z,14.50
2023-01-02T21:16:03.360Z,14.57
2023-01-02T21:18:33.307Z,11.70
2023-01-02T21:21:02.178Z,8.52
2023-01-02T21:23:30.103Z,8.48
2023-01-02T21:25:57.184Z,11.82
2023-01-02T21:28:24.348Z,8.23
2023-01-02T21:30:51.629Z,13.95
2023-01-02T21:33:20.385Z,14.18
2023-01-02T21:35:49.676Z,8.30
2023-01-02T21:38:18.197Z,8.30
2023-01-02T21:40:45.053Z,8.73
2023-01-02T21:43:11.562Z,13.93
2023-01-02T21:45:38.109Z,9.38
2023-01-02T21:48:04.918Z,10.25
2023-01-02T21:50:31.534Z,8.40
2023-01-02T21:52:58.104Z,11.38
2023-01-02T21:55:25.111Z,10.52
2023-01-02T21:58:12.896Z,8.23
2023-01-02T22:00:40.290Z,8.23
2023-01-02T22:03:07.004Z,12.60
2023-01-02T22:05:33.627Z,7.80
2023-01-02T22:08:00.056Z,11.48
2023-01-02T22:10:27.213Z,10.05
2023-01-02T22:12:53.642Z,6.20
2023-01-02T22:15:20.075Z,12.00
2023-01-02T22:17:46.732Z,7.45
2023-01-02T22:20:13.341Z,6.45
2023-01-02T22:22:39.851Z,9.07
2023-01-02T22:25:07.050Z,8.77
2023-01-02T22:27:33.686Z,10.57
2023-01-02T22:32:48.783Z,9.70
2023-01-02T22:35:15.243Z,9.63
2023-01-02T22:37:41.581Z,10.85
2023-01-02T22:40:08.472Z,9.73
2023-01-02T22:43:01.061Z,11.70
2023-01-02T22:45:33.133Z,6.80
2023-01-02T22:48:03.497Z,6.70
2023-01-02T22:50:41.364Z,10.18
2023-01-02T22:53:18.502Z,8.75
2023-01-02T22:55:45.141Z,8.38
2023-01-02T22:58:11.696Z,9.43
2023-01-02T23:00:38.135Z,8.77
2023-01-02T23:03:10.096Z,8.35
2023-01-02T23:05:36.431Z,7.70
2023-01-02T23:08:03.035Z,10.38
2023-01-02T23:10:29.455Z,11.70
2023-01-02T23:12:55.926Z,9.07
2023-01-02T23:15:22.323Z,7.90
2023-01-02T23:18:07.569Z,9.55
2023-01-02T23:20:34.261Z,10.75
2023-01-02T23:23:00.629Z,8.95
2023-01-02T23:25:27.237Z,9.68
2023-01-02T23:27:53.680Z,10.38
2023-01-02T23:30:20.111Z,12.20
2023-01-02T23:32:46.529Z,13.63
2023-01-02T23:35:12.915Z,8.90
2023-01-02T23:37:39.271Z,8.93
2023-01-02T23:40:06.292Z,8.60
2023-01-02T23:42:32.655Z,18.50
2023-01-02T23:44:59.584Z,9.85
2023-01-02T23:47:25.972Z,12.13
2023-01-02T23:49:52.327Z,8.77
2023-01-02T23:52:18.763Z,11.50
2023-01-02T23:54:45.127Z,9.98
2023-01-02T23:57:11.610Z,9.88
2023-01-02T23:59:38.044Z,11.10
